Time;durP1;ratioP1;P1;durP2;ratioP2;P2;SDS_P1;SDS_P2;PMS_P1;PMS_P2;Temp;Humidity;BMP_temperature;BMP_pressure;BME280_temperature;BME280_humidity;BME280_pressure;Samples;Min_cycle;Max_cycle;Signal;HPM_P1;HPM_P2
2022/08/16 00:00:18;;;;;;;20.52;17.30;;;20.70;88.70;;;;;;5075961;28;20187;-87
2022/08/16 00:02:44;;;;;;;18.98;16.83;;;20.80;88.60;;;;;;5074596;28;20245;-87
2022/08/16 00:05:11;;;;;;;18.13;16.38;;;20.80;88.40;;;;;;5074661;28;20191;-87
2022/08/16 00:07:37;;;;;;;19.42;17.48;;;20.80;88.20;;;;;;5074527;28;20191;-87
2022/08/16 00:10:04;;;;;;;18.30;16.50;;;20.80;87.80;;;;;;5074547;28;20167;-88
2022/08/16 00:12:30;;;;;;;18.58;16.85;;;20.80;87.70;;;;;;5074596;28;20557;-87
2022/08/16 00:14:58;;;;;;;19.73;17.67;;;20.70;87.70;;;;;;5074414;28;20179;-87
2022/08/16 00:17:24;;;;;;;21.60;19.08;;;20.70;87.70;;;;;;5075545;28;20196;-87
2022/08/16 00:19:50;;;;;;;21.00;18.58;;;20.70;87.90;;;;;;5073618;28;20282;-87
2022/08/16 00:22:16;;;;;;;21.98;19.83;;;20.70;88.00;;;;;;5074244;28;20672;-87
2022/08/16 00:24:42;;;;;;;23.60;20.98;;;20.50;88.30;;;;;;5074379;28;20175;-87
2022/08/16 00:27:08;;;;;;;25.25;21.42;;;20.30;89.10;;;;;;5075470;28;20250;-87
2022/08/16 00:29:33;;;;;;;32.10;23.13;;;20.30;89.60;;;;;;5074200;28;20268;-87
2022/08/16 00:32:03;;;;;;;28.02;21.50;;;20.30;89.70;;;;;;5075376;28;20638;-86
2022/08/16 00:34:28;;;;;;;28.88;22.38;;;20.20;89.80;;;;;;5075577;28;20167;-87
2022/08/16 00:36:54;;;;;;;25.30;22.65;;;20.20;89.90;;;;;;5074012;28;20739;-87
2022/08/16 00:39:19;;;;;;;25.27;21.00;;;20.30;89.90;;;;;;5074034;28;20672;-87
2022/08/16 00:41:47;;;;;;;23.33;20.15;;;20.30;89.90;;;;;;5075173;28;20176;-89
2022/08/16 00:44:14;;;;;;;22.25;18.60;;;20.30;89.70;;;;;;5073734;28;20637;-88
2022/08/16 00:46:56;;;;;;;23.25;20.90;;;20.50;89.70;;;;;;5073633;28;20587;-88
2022/08/16 00:49:22;;;;;;;23.55;21.40;;;20.40;89.30;;;;;;5073781;28;20163;-88
2022/08/16 00:51:50;;;;;;;24.45;22.02;;;20.30;89.40;;;;;;5074866;28;20205;-88
2022/08/16 00:54:16;;;;;;;24.20;21.63;;;20.30;89.70;;;;;;5074806;28;20707;-88
2022/08/16 00:56:44;;;;;;;25.92;23.30;;;20.30;89.90;;;;;;5073462;28;20196;-88
2022/08/16 00:59:11;;;;;;;26.58;23.50;;;20.20;90.00;;;;;;5074616;28;20230;-89
2022/08/16 01:01:37;;;;;;;29.27;24.40;;;20.20;90.20;;;;;;5074589;28;20190;-88
2022/08/16 01:04:04;;;;;;;28.42;25.52;;;20.20;90.30;;;;;;5073336;28;20225;-88
2022/08/16 01:06:30;;;;;;;27.27;24.60;;;20.20;90.40;;;;;;5073323;28;20191;-88
2022/08/16 01:08:57;;;;;;;27.33;24.77;;;20.20;90.50;;;;;;5074613;28;20539;-88
2022/08/16 01:11:25;;;;;;;26.20;23.73;;;20.20;90.50;;;;;;5073351;28;20258;-88
2022/08/16 01:13:55;;;;;;;27.27;24.08;;;20.20;90.50;;;;;;5073084;28;20171;-88
2022/08/16 01:16:25;;;;;;;26.58;23.58;;;20.20;90.50;;;;;;5073216;28;20285;-88
2022/08/16 01:19:14;;;;;;;25.30;22.90;;;20.20;90.50;;;;;;5074270;28;20167;-88
2022/08/16 01:21:56;;;;;;;23.48;21.08;;;20.30;90.50;;;;;;5072516;28;20229;-88
2022/08/16 01:24:45;;;;;;;24.67;21.23;;;20.30;90.40;;;;;;5074317;28;20147;-89
2022/08/16 01:27:10;;;;;;;25.13;20.38;;;20.40;90.40;;;;;;5073191;28;20682;-88
2022/08/16 01:29:51;;;;;;;22.80;20.50;;;20.50;90.20;;;;;;5072655;28;20179;-89
2022/08/16 01:32:17;;;;;;;21.55;19.55;;;20.50;89.90;;;;;;5074402;28;20170;-89
2022/08/16 01:34:43;;;;;;;20.48;18.38;;;20.50;89.80;;;;;;5072786;28;20179;-89
2022/08/16 01:37:11;;;;;;;22.65;20.25;;;20.50;89.60;;;;;;5072798;28;20183;-88
2022/08/16 01:39:37;;;;;;;24.52;21.15;;;20.50;89.30;;;;;;5073859;28;20233;-88
2022/08/16 01:42:06;;;;;;;24.83;22.02;;;20.50;89.30;;;;;;5073782;28;20191;-89
2022/08/16 01:44:32;;;;;;;25.15;22.50;;;20.30;89.40;;;;;;5072659;28;20203;-88
2022/08/16 01:46:58;;;;;;;27.85;22.45;;;20.20;89.70;;;;;;5072515;28;20217;-88
2022/08/16 01:49:33;;;;;;;28.95;23.98;;;20.20;89.90;;;;;;5074078;28;20172;-88
2022/08/16 01:52:04;;;;;;;26.60;22.77;;;20.10;90.00;;;;;;5073386;28;20232;-88
2022/08/16 01:54:30;;;;;;;26.80;24.00;;;20.10;90.20;;;;;;5073750;28;20553;-88
2022/08/16 01:56:56;;;;;;;24.60;22.08;;;20.00;90.30;;;;;;5073528;28;20187;-88
2022/08/16 01:59:22;;;;;;;25.98;23.17;;;20.00;90.30;;;;;;5073500;28;20191;-88
2022/08/16 02:01:50;;;;;;;32.50;23.23;;;20.00;90.20;;;;;;5073445;28;20175;-89
2022/08/16 02:04:18;;;;;;;26.52;23.20;;;19.90;90.10;;;;;;5073501;28;20159;-88
2022/08/16 02:06:43;;;;;;;24.90;21.50;;;19.90;90.00;;;;;;5072192;28;20191;-88
2022/08/16 02:09:10;;;;;;;23.88;21.23;;;19.90;89.80;;;;;;5072287;28;20184;-88
2022/08/16 02:11:36;;;;;;;22.70;20.33;;;20.00;89.80;;;;;;5073379;28;20216;-89
2022/08/16 02:14:02;;;;;;;22.17;20.00;;;20.00;89.60;;;;;;5073447;28;20541;-88
2022/08/16 02:16:28;;;;;;;23.48;19.83;;;20.00;89.50;;;;;;5072043;28;20596;-88
2022/08/16 02:18:54;;;;;;;20.45;18.23;;;20.00;89.50;;;;;;5072020;28;20245;-89
2022/08/16 02:21:20;;;;;;;24.70;19.05;;;20.20;89.40;;;;;;5072972;28;20244;-88
2022/08/16 02:23:46;;;;;;;21.65;18.77;;;20.20;89.10;;;;;;5073282;28;20191;-88
2022/08/16 02:26:14;;;;;;;26.02;19.85;;;20.20;88.80;;;;;;5071941;28;20285;-89
2022/08/16 02:28:40;;;;;;;22.65;20.45;;;20.10;88.90;;;;;;5073433;28;20641;-88
2022/08/16 02:31:10;;;;;;;22.15;20.00;;;20.00;89.10;;;;;;5072192;28;20236;-88
2022/08/16 02:33:37;;;;;;;27.13;19.98;;;20.00;89.20;;;;;;5072523;28;20234;-88
2022/08/16 02:36:03;;;;;;;23.83;21.40;;;19.90;89.10;;;;;;5071948;28;20198;-89
2022/08/16 02:38:29;;;;;;;23.38;19.85;;;19.80;89.20;;;;;;5071897;28;20199;-88
2022/08/16 02:40:56;;;;;;;26.65;21.38;;;19.90;89.20;;;;;;5071839;28;20199;-89
2022/08/16 02:43:24;;;;;;;25.73;21.88;;;19.90;89.10;;;;;;5076593;28;20195;-88
2022/08/16 02:45:49;;;;;;;21.45;17.95;;;19.90;89.10;;;;;;5077347;28;20199;-88
2022/08/16 02:48:15;;;;;;;22.48;16.63;;;19.90;89.20;;;;;;5076114;28;20175;-88
2022/08/16 02:50:41;;;;;;;22.15;19.85;;;20.00;89.00;;;;;;5075974;28;20190;-88
2022/08/16 02:53:07;;;;;;;24.45;20.40;;;19.90;88.60;;;;;;5075958;28;20194;-88
2022/08/16 02:55:32;;;;;;;28.67;21.60;;;19.80;88.80;;;;;;5075661;28;20195;-88
2022/08/16 02:57:58;;;;;;;25.27;21.50;;;19.70;89.10;;;;;;5077025;28;20208;-88
2022/08/16 03:00:24;;;;;;;26.45;21.95;;;19.50;89.20;;;;;;5075654;28;20190;-88
2022/08/16 03:02:54;;;;;;;28.02;22.33;;;19.30;89.40;;;;;;5076853;28;20202;-88
2022/08/16 03:05:20;;;;;;;25.17;20.38;;;19.30;89.60;;;;;;5075656;28;20738;-88
2022/08/16 03:07:46;;;;;;;23.30;21.10;;;19.30;89.80;;;;;;5075737;28;20172;-89
2022/08/16 03:10:12;;;;;;;24.70;22.13;;;19.40;89.80;;;;;;5076787;28;20193;-88
2022/08/16 03:12:39;;;;;;;27.20;23.00;;;19.30;89.80;;;;;;5076959;28;20167;-88
2022/08/16 03:15:08;;;;;;;35.85;24.08;;;19.30;90.00;;;;;;5076589;28;20191;-88
2022/08/16 03:17:34;;;;;;;24.27;21.73;;;19.30;90.10;;;;;;5075358;28;20706;-89
2022/08/16 03:20:00;;;;;;;27.42;22.30;;;19.40;90.00;;;;;;5075509;28;20187;-88
2022/08/16 03:22:25;;;;;;;28.35;25.40;;;19.30;89.70;;;;;;5076459;28;20191;-88
2022/08/16 03:24:51;;;;;;;33.88;27.20;;;19.30;89.60;;;;;;5076287;28;20251;-88
2022/08/16 03:27:16;;;;;;;30.25;27.25;;;19.30;89.80;;;;;;5075420;28;20184;-88
2022/08/16 03:29:42;;;;;;;31.92;28.63;;;19.30;90.00;;;;;;5076698;28;20172;-88
2022/08/16 03:32:08;;;;;;;33.17;29.83;;;19.20;90.20;;;;;;5076378;28;20714;-88
2022/08/16 03:34:34;;;;;;;35.08;31.35;;;19.00;90.60;;;;;;5076373;28;20171;-88
2022/08/16 03:36:59;;;;;;;35.50;30.67;;;18.90;91.00;;;;;;5076339;28;20195;-89
2022/08/16 03:39:25;;;;;;;41.25;31.80;;;18.90;91.20;;;;;;5075073;28;20580;-88
2022/08/16 03:41:52;;;;;;;36.60;32.80;;;18.90;91.30;;;;;;5074851;28;20178;-88
2022/08/16 03:44:18;;;;;;;36.03;31.05;;;18.90;91.30;;;;;;5074913;28;20253;-88
2022/08/16 03:46:43;;;;;;;33.97;30.52;;;18.90;91.40;;;;;;5074936;28;20199;-88
2022/08/16 03:49:10;;;;;;;34.40;30.80;;;19.00;91.50;;;;;;5074803;28;20258;-88
2022/08/16 03:51:40;;;;;;;31.02;27.85;;;19.10;91.40;;;;;;5074752;28;20177;-88
2022/08/16 03:54:06;;;;;;;36.03;30.13;;;19.10;91.30;;;;;;5074970;28;20625;-88
2022/08/16 03:56:32;;;;;;;37.67;31.42;;;19.20;91.10;;;;;;5074672;28;20222;-88
2022/08/16 03:58:58;;;;;;;36.72;30.45;;;19.20;90.90;;;;;;5075721;28;20186;-88
2022/08/16 04:01:25;;;;;;;35.88;32.08;;;19.20;90.90;;;;;;5075926;28;20191;-88
2022/08/16 04:03:51;;;;;;;37.08;33.25;;;19.20;90.90;;;;;;5075784;28;20282;-89
2022/08/16 04:06:16;;;;;;;39.13;33.30;;;19.10;91.10;;;;;;5074459;28;20669;-88
2022/08/16 04:08:42;;;;;;;35.67;31.98;;;19.00;91.20;;;;;;5075967;28;20254;-88
2022/08/16 04:11:08;;;;;;;34.58;30.17;;;19.00;91.40;;;;;;5075703;28;20172;-88
2022/08/16 04:13:34;;;;;;;35.10;31.42;;;19.10;91.50;;;;;;5074308;28;20653;-88
2022/08/16 04:16:01;;;;;;;36.78;32.95;;;19.10;91.30;;;;;;5075436;28;20668;-89
2022/08/16 04:18:27;;;;;;;36.55;32.50;;;19.10;91.50;;;;;;5074293;28;20282;-88
2022/08/16 04:20:53;;;;;;;39.00;34.78;;;19.10;91.60;;;;;;5074270;28;20566;-88
2022/08/16 04:23:19;;;;;;;40.40;35.33;;;19.10;91.60;;;;;;5075402;28;20183;-88
2022/08/16 04:25:45;;;;;;;41.00;36.45;;;19.10;91.80;;;;;;5074179;28;20187;-88
2022/08/16 04:28:11;;;;;;;43.33;36.45;;;19.00;91.90;;;;;;5075399;28;20548;-88
2022/08/16 04:30:38;;;;;;;41.80;37.40;;;19.00;92.10;;;;;;5075281;28;20171;-88
2022/08/16 04:33:04;;;;;;;43.35;37.85;;;19.00;92.20;;;;;;5074080;28;20241;-88
2022/08/16 04:35:30;;;;;;;42.35;37.75;;;19.00;92.40;;;;;;5075102;28;20544;-88
2022/08/16 04:37:56;;;;;;;45.17;37.97;;;19.00;92.40;;;;;;5074009;28;20555;-88
2022/08/16 04:40:23;;;;;;;44.80;40.10;;;19.00;92.60;;;;;;5073868;28;20261;-88
2022/08/16 04:42:50;;;;;;;51.30;41.60;;;19.00;92.70;;;;;;5073786;28;20561;-88
2022/08/16 04:45:16;;;;;;;51.85;42.97;;;19.00;92.90;;;;;;5073729;28;20249;-89
2022/08/16 04:47:43;;;;;;;49.03;42.92;;;19.10;93.00;;;;;;5073812;28;20560;-89
2022/08/16 04:50:15;;;;;;;55.58;44.67;;;19.10;93.00;;;;;;5074966;28;20254;-88
2022/08/16 04:52:43;;;;;;;49.92;43.00;;;19.10;93.10;;;;;;5073622;28;20179;-89
2022/08/16 04:55:19;;;;;;;49.20;42.55;;;19.20;93.20;;;;;;5073500;28;20191;-88
2022/08/16 04:57:47;;;;;;;47.40;42.28;;;19.20;93.20;;;;;;5073679;28;20637;-89
2022/08/16 05:00:18;;;;;;;58.30;43.58;;;19.20;93.20;;;;;;5074585;28;20191;-88
2022/08/16 05:02:44;;;;;;;47.13;42.00;;;19.20;93.30;;;;;;5075023;28;20190;-88
2022/08/16 05:05:11;;;;;;;46.97;41.85;;;19.20;93.30;;;;;;5072855;28;20197;-88
2022/08/16 05:07:38;;;;;;;49.47;41.83;;;19.20;93.30;;;;;;5073905;28;20229;-88
2022/08/16 05:10:06;;;;;;;47.63;41.60;;;19.20;93.30;;;;;;5073641;28;20182;-88
2022/08/16 05:12:31;;;;;;;49.88;42.30;;;19.20;93.30;;;;;;5073273;28;20621;-88
2022/08/16 05:14:57;;;;;;;48.53;42.10;;;19.20;93.30;;;;;;5074333;28;20207;-88
2022/08/16 05:17:23;;;;;;;47.83;41.45;;;19.20;93.30;;;;;;5074722;28;20176;-88
2022/08/16 05:19:49;;;;;;;45.85;39.83;;;19.20;93.30;;;;;;5072991;28;20171;-88
2022/08/16 05:22:14;;;;;;;55.67;42.53;;;19.20;93.20;;;;;;5074466;28;20632;-88
2022/08/16 05:24:40;;;;;;;48.22;40.63;;;19.30;93.20;;;;;;5074482;28;20164;-88
2022/08/16 05:27:06;;;;;;;46.72;40.33;;;19.30;93.10;;;;;;5072927;28;20568;-88
2022/08/16 05:29:32;;;;;;;42.60;38.08;;;19.40;93.20;;;;;;5072960;28;20172;-88
2022/08/16 05:31:58;;;;;;;42.17;37.78;;;19.40;93.10;;;;;;5074103;28;20279;-88
2022/08/16 05:34:23;;;;;;;39.75;35.70;;;19.40;92.90;;;;;;5074215;28;20167;-88
2022/08/16 05:36:51;;;;;;;37.55;33.50;;;19.50;92.70;;;;;;5074023;28;20191;-88
2022/08/16 05:39:17;;;;;;;35.78;31.95;;;19.50;92.50;;;;;;5072730;28;20175;-88
2022/08/16 05:41:43;;;;;;;35.17;31.38;;;19.50;92.30;;;;;;5072648;28;20252;-88
2022/08/16 05:44:09;;;;;;;35.60;31.80;;;19.50;92.20;;;;;;5072602;28;20241;-88
2022/08/16 05:46:34;;;;;;;32.75;29.55;;;19.60;92.10;;;;;;5072612;28;20192;-88
2022/08/16 05:49:00;;;;;;;34.08;30.45;;;19.60;92.00;;;;;;5072728;28;20524;-88
2022/08/16 05:51:26;;;;;;;34.85;31.25;;;19.60;92.00;;;;;;5072459;28;20657;-88
2022/08/16 05:53:51;;;;;;;32.08;28.17;;;19.70;91.90;;;;;;5072512;28;20653;-88
2022/08/16 05:56:17;;;;;;;34.42;29.63;;;19.70;91.80;;;;;;5073608;28;20205;-88
2022/08/16 05:58:42;;;;;;;30.88;27.52;;;19.70;91.80;;;;;;5073465;28;20254;-89
2022/08/16 06:01:08;;;;;;;30.42;27.13;;;19.70;91.70;;;;;;5072326;28;20262;-88
2022/08/16 06:03:34;;;;;;;31.73;26.55;;;19.70;91.60;;;;;;5073756;28;20190;-88
2022/08/16 06:05:59;;;;;;;36.00;27.92;;;19.80;91.40;;;;;;5073685;28;20238;-88
2022/08/16 06:08:25;;;;;;;35.30;26.50;;;19.90;91.40;;;;;;5072246;28;20228;-87
2022/08/16 06:10:51;;;;;;;31.17;27.67;;;19.90;91.10;;;;;;5072232;28;20174;-88
2022/08/16 06:13:16;;;;;;;29.38;25.98;;;20.00;91.00;;;;;;5073465;28;20222;-88
2022/08/16 06:15:42;;;;;;;28.35;25.45;;;20.00;90.90;;;;;;5072214;28;20190;-88
2022/08/16 06:18:08;;;;;;;28.23;24.95;;;20.10;90.80;;;;;;5071617;28;20657;-88
2022/08/16 06:20:33;;;;;;;29.38;26.35;;;20.10;90.80;;;;;;5072112;28;20182;-88
2022/08/16 06:22:59;;;;;;;27.75;24.70;;;20.10;90.70;;;;;;5072131;28;20199;-88
2022/08/16 06:25:26;;;;;;;29.20;25.85;;;20.10;90.70;;;;;;5073229;28;20191;-88
2022/08/16 06:27:52;;;;;;;27.77;24.85;;;20.20;90.70;;;;;;5072133;28;20182;-88
2022/08/16 06:30:19;;;;;;;27.05;24.35;;;20.20;90.60;;;;;;5071987;28;20213;-88
2022/08/16 06:32:45;;;;;;;28.00;24.50;;;20.20;90.60;;;;;;5073322;28;20225;-88
2022/08/16 06:35:11;;;;;;;28.55;23.83;;;20.20;90.10;;;;;;5073193;28;20738;-88
2022/08/16 06:37:39;;;;;;;31.27;24.33;;;20.20;90.20;;;;;;5071942;28;20229;-88
2022/08/16 06:40:05;;;;;;;28.63;23.48;;;20.20;89.90;;;;;;5073139;28;20175;-88
2022/08/16 06:42:31;;;;;;;29.95;22.77;;;20.20;89.80;;;;;;5071952;28;20199;-88
2022/08/16 06:44:57;;;;;;;24.33;21.73;;;20.30;89.60;;;;;;5073049;28;20167;-88
2022/08/16 06:47:23;;;;;;;23.77;20.23;;;20.40;89.40;;;;;;5072015;28;20637;-88
2022/08/16 06:49:48;;;;;;;24.75;21.60;;;20.50;88.90;;;;;;5071879;28;20179;-88
2022/08/16 06:52:14;;;;;;;26.20;20.55;;;20.70;88.60;;;;;;5073097;28;20698;-88
2022/08/16 06:54:39;;;;;;;24.27;19.77;;;20.70;88.70;;;;;;5072127;28;20190;-88
2022/08/16 06:57:05;;;;;;;28.02;19.65;;;20.90;88.60;;;;;;5071798;28;20202;-88
2022/08/16 06:59:31;;;;;;;23.58;19.20;;;20.90;87.90;;;;;;5071730;28;20298;-88
2022/08/16 07:01:57;;;;;;;24.35;19.42;;;20.90;87.10;;;;;;5073321;28;20175;-88
2022/08/16 07:04:22;;;;;;;23.30;18.65;;;21.00;87.20;;;;;;5071887;28;20198;-88
2022/08/16 07:06:48;;;;;;;22.20;17.73;;;21.10;87.10;;;;;;5072126;28;20274;-89
2022/08/16 07:09:14;;;;;;;23.98;18.23;;;21.00;86.60;;;;;;5071811;28;20254;-89
2022/08/16 07:11:40;;;;;;;20.27;17.98;;;21.10;86.40;;;;;;5072999;28;20630;-89
2022/08/16 07:14:05;;;;;;;20.60;18.50;;;21.20;86.70;;;;;;5071721;28;20278;-87
2022/08/16 07:16:31;;;;;;;25.73;17.85;;;21.20;87.00;;;;;;5071776;28;20202;-88
2022/08/16 07:18:58;;;;;;;19.90;16.23;;;21.40;86.90;;;;;;5071905;28;20279;-88
2022/08/16 07:21:24;;;;;;;18.88;16.63;;;21.50;86.60;;;;;;5071857;28;20183;-88
2022/08/16 07:23:49;;;;;;;21.88;16.65;;;21.60;86.30;;;;;;5071925;28;20556;-87
2022/08/16 07:26:23;;;;;;;17.92;15.93;;;21.70;85.60;;;;;;5071772;28;20241;-88
2022/08/16 07:28:49;;;;;;;19.80;15.20;;;21.70;84.90;;;;;;5074459;28;20166;-88
2022/08/16 07:31:16;;;;;;;23.40;15.45;;;21.70;84.80;;;;;;5076748;28;20235;-87
2022/08/16 07:33:43;;;;;;;19.55;14.40;;;21.70;84.60;;;;;;5077190;28;20252;-87
2022/08/16 07:36:10;;;;;;;20.13;15.40;;;21.80;84.20;;;;;;5076813;28;20195;-87
2022/08/16 07:38:36;;;;;;;16.95;14.20;;;21.90;84.40;;;;;;5076880;28;20179;-88
2022/08/16 07:41:02;;;;;;;17.55;14.98;;;22.00;83.80;;;;;;5077308;28;20262;-87
2022/08/16 07:43:28;;;;;;;16.98;14.48;;;22.00;83.30;;;;;;5076442;28;20199;-86
2022/08/16 07:45:53;;;;;;;17.77;13.25;;;22.00;83.00;;;;;;5076517;28;20191;-89
2022/08/16 07:48:20;;;;;;;17.58;14.43;;;22.10;83.20;;;;;;5077415;28;20195;-88
2022/08/16 07:50:45;;;;;;;17.63;13.18;;;22.10;82.20;;;;;;5076634;28;20176;-87
2022/08/16 07:53:12;;;;;;;16.88;13.65;;;22.20;82.80;;;;;;5076846;28;20175;-88
2022/08/16 07:55:38;;;;;;;20.05;15.38;;;22.20;82.50;;;;;;5075087;28;20290;-88
2022/08/16 07:58:03;;;;;;;14.18;12.77;;;22.20;82.10;;;;;;5076375;28;20202;-88
2022/08/16 08:00:30;;;;;;;16.33;13.35;;;22.30;82.50;;;;;;5075074;28;20621;-88
2022/08/16 08:02:56;;;;;;;16.73;13.20;;;22.30;81.70;;;;;;5076319;28;20199;-88
2022/08/16 08:05:23;;;;;;;22.08;13.18;;;22.50;81.90;;;;;;5076876;28;20210;-87
2022/08/16 08:07:48;;;;;;;15.82;11.82;;;22.70;80.30;;;;;;5074854;28;20529;-89
2022/08/16 08:10:15;;;;;;;17.33;12.00;;;22.90;78.90;;;;;;5075972;28;20171;-89
2022/08/16 08:12:43;;;;;;;16.75;11.50;;;22.90;78.30;;;;;;5074858;28;20183;-88
2022/08/16 08:15:10;;;;;;;15.82;10.95;;;23.20;78.90;;;;;;5074369;28;20195;-89
2022/08/16 08:17:38;;;;;;;19.42;12.70;;;23.20;78.30;;;;;;5075673;28;20198;-88
2022/08/16 08:20:06;;;;;;;12.93;10.13;;;23.30;77.80;;;;;;5074428;28;20182;-87
2022/08/16 08:22:32;;;;;;;15.50;9.40;;;23.40;76.90;;;;;;5076103;28;20223;-86
2022/08/16 08:24:57;;;;;;;17.15;10.15;;;23.40;76.90;;;;;;5074995;28;20225;-88
2022/08/16 08:27:23;;;;;;;13.50;10.68;;;23.40;76.00;;;;;;5074649;28;20180;-90
2022/08/16 08:29:49;;;;;;;12.80;9.18;;;23.40;75.60;;;;;;5074481;28;20522;-87
2022/08/16 08:32:14;;;;;;;17.60;9.82;;;23.40;75.40;;;;;;5074488;28;20171;-89
2022/08/16 08:34:40;;;;;;;15.80;9.75;;;23.50;76.10;;;;;;5076001;28;20171;-87
2022/08/16 08:37:06;;;;;;;16.75;8.80;;;23.40;74.20;;;;;;5075714;28;20634;-88
2022/08/16 08:39:33;;;;;;;14.30;8.95;;;23.60;75.70;;;;;;5073809;28;20270;-87
2022/08/16 08:41:59;;;;;;;15.57;8.95;;;23.80;75.30;;;;;;5074246;28;20198;-88
2022/08/16 08:44:24;;;;;;;21.55;9.65;;;24.00;75.20;;;;;;5074322;28;20636;-88
2022/08/16 08:46:50;;;;;;;10.07;7.70;;;24.00;74.00;;;;;;5074369;28;20192;-88
2022/08/16 08:49:15;;;;;;;18.33;9.40;;;24.10;73.40;;;;;;5074203;28;20171;-88
2022/08/16 08:51:41;;;;;;;15.43;9.38;;;24.20;73.70;;;;;;5074185;28;20179;-88
2022/08/16 08:54:07;;;;;;;11.43;9.18;;;24.10;72.20;;;;;;5073880;28;20179;-89
2022/08/16 08:56:36;;;;;;;14.60;9.68;;;24.30;74.60;;;;;;5073798;28;20606;-88
2022/08/16 08:59:03;;;;;;;16.70;9.75;;;24.20;72.30;;;;;;5075177;28;20191;-88
2022/08/16 09:01:32;;;;;;;17.83;10.88;;;24.20;71.60;;;;;;5075063;28;20163;-87
2022/08/16 09:03:58;;;;;;;12.43;10.25;;;24.20;73.20;;;;;;5073671;28;20195;-88
2022/08/16 09:06:24;;;;;;;13.38;9.75;;;24.20;71.90;;;;;;5073545;28;20191;-87
2022/08/16 09:08:50;;;;;;;15.05;10.18;;;24.20;72.60;;;;;;5073899;28;20244;-88
2022/08/16 09:11:15;;;;;;;14.07;9.68;;;24.40;71.70;;;;;;5074706;28;20167;-88
2022/08/16 09:13:43;;;;;;;14.00;9.13;;;24.50;72.70;;;;;;5075342;28;20198;-87
2022/08/16 09:16:08;;;;;;;14.70;9.10;;;24.50;71.50;;;;;;5073839;28;20600;-88
2022/08/16 09:18:34;;;;;;;14.20;9.90;;;24.80;72.10;;;;;;5073413;28;20171;-89
2022/08/16 09:21:00;;;;;;;13.80;9.63;;;24.80;70.40;;;;;;5073462;28;20179;-88
2022/08/16 09:23:28;;;;;;;12.73;8.52;;;24.70;70.10;;;;;;5074351;28;20609;-88
2022/08/16 09:25:53;;;;;;;16.75;8.73;;;24.90;69.50;;;;;;5073289;28;20187;-88
2022/08/16 09:28:19;;;;;;;13.50;9.20;;;25.00;70.10;;;;;;5073627;28;20175;-88
2022/08/16 09:30:45;;;;;;;12.55;8.75;;;25.10;69.40;;;;;;5073290;28;20171;-88
2022/08/16 09:33:14;;;;;;;13.45;8.40;;;25.00;69.00;;;;;;5072948;28;20175;-90
2022/08/16 09:35:40;;;;;;;12.20;7.63;;;25.20;67.80;;;;;;5072759;28;20191;-88
2022/08/16 09:38:06;;;;;;;12.70;7.97;;;25.10;66.50;;;;;;5074397;28;20254;-89
2022/08/16 09:40:32;;;;;;;18.83;7.43;;;25.30;67.00;;;;;;5073938;28;20621;-89
2022/08/16 09:42:57;;;;;;;20.05;7.45;;;25.60;68.30;;;;;;5072611;28;20253;-89
2022/08/16 09:45:24;;;;;;;10.68;6.75;;;25.60;65.80;;;;;;5072537;28;20278;-88
2022/08/16 09:47:53;;;;;;;9.88;7.70;;;25.50;66.60;;;;;;5072583;28;20179;-88
2022/08/16 09:50:20;;;;;;;15.55;9.05;;;25.60;65.60;;;;;;5072476;28;20176;-89
2022/08/16 09:52:46;;;;;;;9.52;8.55;;;25.60;65.40;;;;;;5073754;28;20182;-90
2022/08/16 09:55:12;;;;;;;15.23;9.07;;;25.70;66.30;;;;;;5072427;28;20571;-88
2022/08/16 09:57:40;;;;;;;17.35;9.30;;;25.70;65.90;;;;;;5074061;28;20255;-85
2022/08/16 10:00:09;;;;;;;12.13;9.27;;;25.80;67.00;;;;;;5074161;28;20198;-84
2022/08/16 10:02:35;;;;;;;13.07;9.82;;;25.90;66.00;;;;;;5073882;28;20202;-85
2022/08/16 10:05:01;;;;;;;14.07;8.88;;;26.00;64.20;;;;;;5072767;28;20172;-85
2022/08/16 10:07:29;;;;;;;11.98;9.13;;;26.10;65.90;;;;;;5073091;28;20759;-85
2022/08/16 10:09:55;;;;;;;11.07;9.30;;;26.10;64.30;;;;;;5074345;28;20171;-84
2022/08/16 10:15:07;;;;;;;7.75;5.90;;;26.20;65.60;;;;;;5074586;28;20280;-86
2022/08/16 10:17:33;;;;;;;13.65;6.57;;;26.30;64.10;;;;;;5072634;28;20183;-86
2022/08/16 10:19:59;;;;;;;12.85;6.78;;;26.30;63.10;;;;;;5073091;28;20203;-86
2022/08/16 10:22:25;;;;;;;9.70;6.22;;;26.10;63.00;;;;;;5072740;28;20260;-85
2022/08/16 10:24:51;;;;;;;12.25;6.10;;;26.00;63.80;;;;;;5072742;28;20175;-85
2022/08/16 10:27:17;;;;;;;13.05;7.35;;;25.80;65.00;;;;;;5072579;28;20312;-85
2022/08/16 10:29:42;;;;;;;10.00;5.93;;;26.10;65.50;;;;;;5073883;28;20203;-85
2022/08/16 10:32:08;;;;;;;8.65;5.65;;;26.50;64.30;;;;;;5072415;28;20258;-85
2022/08/16 10:34:33;;;;;;;9.90;7.00;;;26.80;62.70;;;;;;5072407;28;20174;-85
2022/08/16 10:37:00;;;;;;;10.25;5.80;;;27.10;61.30;;;;;;5073452;28;20211;-85
2022/08/16 10:39:27;;;;;;;9.60;6.93;;;27.10;60.50;;;;;;5074098;28;20626;-84
2022/08/16 10:41:52;;;;;;;18.20;6.45;;;26.70;61.20;;;;;;5073761;28;20176;-85
2022/08/16 10:44:18;;;;;;;11.20;8.20;;;27.00;63.30;;;;;;5072746;28;20619;-84
2022/08/16 10:46:43;;;;;;;12.10;7.72;;;27.10;59.80;;;;;;5074098;28;20199;-84
2022/08/16 10:49:11;;;;;;;9.93;7.13;;;26.90;61.60;;;;;;5074308;28;20209;-85
2022/08/16 10:51:38;;;;;;;9.38;7.25;;;27.00;61.50;;;;;;5073932;28;20187;-85
2022/08/16 10:54:04;;;;;;;13.68;6.93;;;27.10;62.10;;;;;;5072534;28;20220;-85
2022/08/16 10:56:31;;;;;;;12.23;7.65;;;27.20;61.20;;;;;;5072399;28;20202;-85
2022/08/16 10:58:57;;;;;;;8.60;5.95;;;27.30;59.90;;;;;;5073632;28;20191;-85
2022/08/16 11:01:24;;;;;;;10.65;6.10;;;27.30;61.50;;;;;;5072581;28;20205;-85
2022/08/16 11:03:53;;;;;;;7.93;7.13;;;27.30;58.90;;;;;;5076422;28;20278;-84
2022/08/16 11:06:20;;;;;;;12.65;7.18;;;27.20;59.00;;;;;;5076140;28;20293;-85
2022/08/16 11:08:46;;;;;;;17.80;8.07;;;26.80;59.40;;;;;;5076546;28;20178;-85
2022/08/16 11:11:13;;;;;;;10.82;6.88;;;26.50;60.90;;;;;;5076199;28;20175;-85
2022/08/16 11:13:39;;;;;;;10.80;6.00;;;26.60;61.30;;;;;;5076312;28;20179;-85
2022/08/16 11:16:06;;;;;;;8.57;5.95;;;27.20;61.60;;;;;;5077492;28;20572;-84
2022/08/16 11:18:31;;;;;;;9.32;6.00;;;27.30;57.30;;;;;;5076286;28;20182;-85
2022/08/16 11:20:58;;;;;;;10.32;5.40;;;27.60;59.70;;;;;;5076029;28;20590;-84
2022/08/16 11:23:25;;;;;;;6.47;5.00;;;27.70;57.00;;;;;;5076521;28;20665;-85
2022/08/16 11:25:51;;;;;;;13.27;5.78;;;27.60;55.00;;;;;;5076316;28;20568;-86
2022/08/16 11:28:18;;;;;;;5.93;5.32;;;27.50;54.90;;;;;;5076238;28;20526;-84
2022/08/16 11:30:44;;;;;;;6.80;5.78;;;27.60;55.50;;;;;;5075931;28;20184;-85
2022/08/16 11:33:10;;;;;;;6.93;4.78;;;27.80;54.90;;;;;;5075932;28;20179;-85
2022/08/16 11:35:37;;;;;;;7.60;5.05;;;27.80;57.40;;;;;;5076930;28;20561;-85
2022/08/16 11:38:10;;;;;;;9.65;4.97;;;27.90;56.30;;;;;;5075793;28;20179;-81
2022/08/16 11:40:49;;;;;;;9.13;5.40;;;28.20;56.50;;;;;;5077575;28;20537;-83
2022/08/16 11:43:18;;;;;;;7.30;4.57;;;28.20;53.00;;;;;;5077887;28;20218;-83
2022/08/16 11:45:45;;;;;;;7.40;4.60;;;28.00;55.10;;;;;;5075755;28;20210;-83
2022/08/16 11:48:12;;;;;;;7.35;5.82;;;27.70;55.80;;;;;;5077208;28;20171;-83
2022/08/16 11:50:39;;;;;;;9.23;5.72;;;27.50;56.10;;;;;;5076788;28;20258;-83
2022/08/16 11:53:05;;;;;;;11.05;7.25;;;27.50;57.10;;;;;;5076781;28;20648;-83
2022/08/16 11:55:32;;;;;;;9.15;6.30;;;27.00;58.30;;;;;;5075024;28;20205;-84
2022/08/16 11:57:59;;;;;;;11.93;6.97;;;26.70;60.50;;;;;;5075247;28;20187;-83
2022/08/16 12:00:24;;;;;;;10.43;6.82;;;26.60;61.00;;;;;;5075274;28;20278;-82
2022/08/16 12:02:50;;;;;;;12.02;7.32;;;26.40;62.20;;;;;;5075100;28;20279;-87
2022/08/16 12:05:16;;;;;;;13.98;7.07;;;26.40;62.70;;;;;;5074645;28;20593;-87
2022/08/16 12:07:42;;;;;;;13.88;7.03;;;26.40;62.40;;;;;;5074906;28;20195;-86
2022/08/16 12:10:13;;;;;;;8.70;5.82;;;26.40;62.30;;;;;;5074687;28;20184;-86
2022/08/16 12:12:40;;;;;;;10.30;5.22;;;26.40;61.20;;;;;;5075887;28;20147;-86
2022/08/16 12:15:07;;;;;;;7.38;5.10;;;26.50;58.20;;;;;;5074108;28;20207;-86
2022/08/16 12:17:33;;;;;;;7.07;4.50;;;26.50;58.60;;;;;;5074312;28;20183;-87
2022/08/16 12:20:08;;;;;;;10.98;4.93;;;26.50;58.20;;;;;;5075898;28;20171;-85
2022/08/16 12:22:35;;;;;;;7.63;5.32;;;26.40;58.80;;;;;;5074465;28;20194;-85
2022/08/16 12:25:02;;;;;;;8.45;5.05;;;26.50;59.10;;;;;;5074694;28;20669;-86
2022/08/16 12:27:28;;;;;;;7.72;4.30;;;26.80;58.90;;;;;;5074420;28;20605;-86
2022/08/16 12:29:54;;;;;;;5.47;4.40;;;27.10;55.40;;;;;;5074580;28;20172;-86